Time;durP1;ratioP1;P1;durP2;ratioP2;P2;SDS_P1;SDS_P2;PMS_P1;PMS_P2;Temp;Humidity;BMP_temperature;BMP_pressure;BME280_temperature;BME280_humidity;BME280_pressure;Samples;Min_cycle;Max_cycle;Signal;HPM_P1;HPM_P2
2023/08/28 00:00:27;;;;;;;4.18;3.63;;;;;;;14.49;86.28;100952.81;3582886;40;20074;-68
2023/08/28 00:02:54;;;;;;;6.75;4.20;;;;;;;14.36;85.85;100930.38;3583163;40;20358;-68
2023/08/28 00:05:21;;;;;;;3.58;3.28;;;;;;;14.48;86.38;100953.81;3586946;40;20129;-68
2023/08/28 00:07:47;;;;;;;4.20;3.60;;;;;;;14.38;85.99;100948.22;3585095;40;20071;-68
2023/08/28 00:10:13;;;;;;;4.10;3.63;;;;;;;14.44;86.01;100956.88;3582478;40;20122;-67
2023/08/28 00:12:40;;;;;;;8.18;4.00;;;;;;;14.42;86.62;100954.25;3586087;40;20060;-67
2023/08/28 00:15:10;;;;;;;4.93;3.83;;;;;;;14.29;86.21;100929.13;3585169;40;20060;-67
2023/08/28 00:17:37;;;;;;;3.95;3.65;;;;;;;14.25;86.61;100922.25;3583781;40;20067;-67
2023/08/28 00:20:07;;;;;;;7.63;4.00;;;;;;;14.34;86.52;100935.06;3584860;40;20403;-68
2023/08/28 00:22:34;;;;;;;4.25;3.70;;;;;;;14.36;86.52;100943.91;3584502;40;20060;-68
2023/08/28 00:24:59;;;;;;;4.18;3.78;;;;;;;14.35;86.70;100939.50;3582052;40;20056;-68
2023/08/28 00:27:25;;;;;;;5.93;3.58;;;;;;;14.35;86.12;100936.78;3585339;40;20059;-68
2023/08/28 00:29:50;;;;;;;3.60;3.22;;;;;;;14.30;86.36;100930.84;3584290;40;20319;-68
2023/08/28 00:32:16;;;;;;;6.35;3.88;;;;;;;14.30;86.48;100937.16;3584493;40;20052;-68
2023/08/28 00:34:42;;;;;;;4.07;3.67;;;;;;;14.29;86.82;100931.84;3584616;40;20047;-68
2023/08/28 00:37:08;;;;;;;4.22;3.83;;;;;;;14.28;86.86;100938.25;3586114;40;20075;-67
2023/08/28 00:39:33;;;;;;;4.30;3.90;;;;;;;14.26;87.00;100926.66;3583997;40;20386;-68
2023/08/28 00:41:59;;;;;;;4.30;3.90;;;;;;;14.25;86.97;100914.13;3582806;39;20052;-68
2023/08/28 00:44:25;;;;;;;4.53;3.95;;;;;;;14.26;87.27;100919.41;3584981;40;20052;-68
2023/08/28 00:46:50;;;;;;;7.32;4.43;;;;;;;14.17;86.81;100904.75;3583828;40;20052;-68
2023/08/28 00:49:16;;;;;;;5.03;4.28;;;;;;;14.27;86.48;100928.38;3573598;40;20062;-68
2023/08/28 00:51:43;;;;;;;5.60;4.03;;;;;;;14.01;86.49;100887.09;3584986;40;20058;-68
2023/08/28 00:54:09;;;;;;;4.32;3.92;;;;;;;14.24;86.30;100928.59;3581502;40;20067;-68
2023/08/28 00:56:36;;;;;;;5.75;4.22;;;;;;;14.20;86.13;100933.38;3584622;40;20051;-68
2023/08/28 00:59:03;;;;;;;4.57;3.95;;;;;;;14.16;86.07;100935.47;3583036;40;20054;-68
2023/08/28 01:01:29;;;;;;;4.43;3.90;;;;;;;14.11;86.25;100934.06;3583627;40;20060;-69
2023/08/28 01:03:54;;;;;;;4.22;3.90;;;;;;;14.10;86.63;100933.22;3583644;40;20767;-68
2023/08/28 01:07:09;;;;;;;5.30;4.43;;;;;;;14.07;87.17;100927.19;3584100;40;20066;-67
2023/08/28 01:10:05;;;;;;;5.05;4.30;;;;;;;14.02;87.48;100930.25;3582460;40;20052;-68
2023/08/28 01:13:07;;;;;;;5.68;4.35;;;;;;;13.98;87.55;100928.72;3583160;40;20048;-68
2023/08/28 01:15:36;;;;;;;5.00;4.45;;;;;;;13.93;87.74;100939.03;3575719;40;20300;-68
2023/08/28 01:18:05;;;;;;;5.43;4.43;;;;;;;13.87;88.43;100937.63;3585603;40;20060;-68
2023/08/28 01:20:35;;;;;;;5.70;4.50;;;;;;;13.81;89.05;100926.44;3583063;40;20410;-68
2023/08/28 01:23:31;;;;;;;5.88;4.45;;;;;;;13.80;89.32;100924.72;3587176;40;20548;-67
2023/08/28 01:25:58;;;;;;;5.30;4.80;;;;;;;13.78;89.02;100923.94;3581435;40;20099;-68
2023/08/28 01:28:25;;;;;;;6.72;5.25;;;;;;;13.74;89.54;100914.34;3586998;40;20048;-68
2023/08/28 01:30:53;;;;;;;6.82;5.20;;;;;;;13.72;89.33;100921.69;3582223;40;20075;-69
2023/08/28 01:33:19;;;;;;;5.60;4.97;;;;;;;13.72;89.92;100916.28;3584702;40;20066;-68
2023/08/28 01:35:59;;;;;;;4.97;4.50;;;;;;;13.69;89.42;100918.22;3584566;40;20089;-68
2023/08/28 01:38:37;;;;;;;7.55;5.60;;;;;;;13.68;90.11;100916.53;3586389;39;20079;-68
2023/08/28 01:41:11;;;;;;;6.45;5.25;;;;;;;13.67;90.30;100916.66;3585401;40;20311;-68
2023/08/28 01:43:49;;;;;;;6.10;5.20;;;;;;;13.64;90.10;100906.94;3582635;40;20060;-67
2023/08/28 01:46:19;;;;;;;7.00;5.28;;;;;;;13.63;89.91;100907.03;3585040;40;20092;-67
2023/08/28 01:48:52;;;;;;;7.90;5.60;;;;;;;13.18;90.12;100826.53;3583910;40;20157;-68
2023/08/28 01:51:18;;;;;;;7.38;5.55;;;;;;;13.34;90.63;100853.31;3584193;40;20067;-68
2023/08/28 01:53:45;;;;;;;6.50;5.65;;;;;;;13.36;90.74;100861.31;3583175;40;20303;-68
2023/08/28 01:56:11;;;;;;;6.90;5.25;;;;;;;13.59;91.39;100900.97;3583665;40;20371;-68
2023/08/28 01:58:47;;;;;;;9.07;6.38;;;;;;;13.26;91.66;100844.03;3585581;40;20056;-68
2023/08/28 02:01:12;;;;;;;9.77;5.88;;;;;;;13.60;91.66;100897.28;3583757;40;21094;-68
2023/08/28 02:03:39;;;;;;;10.23;5.75;;;;;;;13.61;91.54;100895.47;3584570;40;20051;-68
2023/08/28 02:06:05;;;;;;;7.15;5.82;;;;;;;13.61;91.47;100896.34;3584658;40;20067;-68
2023/08/28 02:08:31;;;;;;;7.40;5.68;;;;;;;13.61;91.08;100901.75;3581433;40;20095;-68
2023/08/28 02:10:57;;;;;;;7.28;5.57;;;;;;;13.60;90.53;100886.50;3585399;40;20056;-68
2023/08/28 02:13:22;;;;;;;6.90;6.10;;;;;;;13.60;90.71;100883.78;3584777;40;20068;-68
2023/08/28 02:15:48;;;;;;;6.80;5.80;;;;;;;13.58;90.57;100879.50;3586145;40;20458;-68
2023/08/28 02:18:14;;;;;;;6.28;5.65;;;;;;;13.53;90.01;100874.44;3582933;40;20362;-68
2023/08/28 02:20:40;;;;;;;8.38;6.47;;;;;;;13.53;90.44;100881.66;3583830;40;20295;-67
2023/08/28 02:23:06;;;;;;;6.70;5.95;;;;;;;13.46;90.68;100878.56;3581950;40;20135;-68
2023/08/28 02:25:31;;;;;;;7.30;6.55;;;;;;;13.46;90.89;100884.81;3577543;40;20063;-67
2023/08/28 02:27:57;;;;;;;8.60;7.10;;;;;;;13.45;91.70;100887.66;3584056;40;20372;-67
2023/08/28 02:30:23;;;;;;;8.00;6.38;;;;;;;13.43;91.96;100886.88;3583454;40;20431;-68
2023/08/28 02:32:49;;;;;;;7.60;6.75;;;;;;;13.24;91.69;100857.63;3584551;40;20063;-68
2023/08/28 02:35:15;;;;;;;6.97;6.38;;;;;;;13.19;91.60;100860.66;3585514;39;20045;-68
2023/08/28 02:37:41;;;;;;;7.90;6.57;;;;;;;13.26;91.71;100871.03;3584896;40;20097;-68
2023/08/28 02:40:10;;;;;;;7.40;6.70;;;;;;;13.35;92.39;100889.25;3582208;40;20067;-67
2023/08/28 02:42:36;;;;;;;9.05;6.20;;;;;;;13.33;92.14;100880.44;3585014;40;20052;-67
2023/08/28 02:45:04;;;;;;;7.35;6.65;;;;;;;13.34;92.46;100890.25;3572675;40;20051;-68
2023/08/28 02:47:30;;;;;;;7.15;6.32;;;;;;;13.34;92.17;100891.09;3586948;40;20383;-68
2023/08/28 02:49:55;;;;;;;9.38;6.95;;;;;;;13.34;92.38;100891.09;3584930;40;20044;-67
2023/08/28 02:52:21;;;;;;;7.50;6.20;;;;;;;13.34;92.04;100895.66;3581805;40;20052;-67
2023/08/28 02:54:46;;;;;;;9.15;6.47;;;;;;;12.75;91.78;100799.09;3585498;40;20047;-67
2023/08/28 02:57:12;;;;;;;7.00;6.30;;;;;;;13.26;92.21;100888.13;3584885;40;20064;-68
2023/08/28 02:59:38;;;;;;;7.28;5.95;;;;;;;13.31;92.33;100899.41;3585809;40;20061;-68
2023/08/28 03:02:03;;;;;;;7.45;6.72;;;;;;;13.25;92.20;100891.75;3581350;40;20067;-67
2023/08/28 03:04:29;;;;;;;9.52;7.25;;;;;;;13.31;92.62;100901.25;3582452;40;20058;-68
2023/08/28 03:06:55;;;;;;;9.50;6.72;;;;;;;13.32;92.66;100905.69;3581887;40;20402;-67
2023/08/28 03:09:20;;;;;;;7.65;6.88;;;;;;;13.29;92.27;100903.19;3583311;40;20063;-68
2023/08/28 03:11:46;;;;;;;7.40;6.70;;;;;;;12.89;92.97;100846.66;3584240;40;20064;-68
2023/08/28 03:14:11;;;;;;;8.00;6.95;;;;;;;13.31;93.02;100917.47;3582707;40;20698;-67
2023/08/28 03:16:37;;;;;;;8.85;7.55;;;;;;;13.31;92.90;100912.91;3579749;40;20365;-67
2023/08/28 03:19:03;;;;;;;9.85;8.23;;;;;;;13.32;92.83;100921.88;3582582;40;20063;-68
2023/08/28 03:21:29;;;;;;;7.93;7.22;;;;;;;13.33;93.21;100910.13;3582511;40;20125;-68
2023/08/28 03:23:54;;;;;;;8.75;7.85;;;;;;;13.34;93.29;100909.16;3584324;40;20060;-67
2023/08/28 03:26:20;;;;;;;9.43;7.68;;;;;;;13.29;93.77;100903.19;3583365;40;20150;-67
2023/08/28 03:28:45;;;;;;;8.50;7.40;;;;;;;13.40;93.61;100917.66;3584596;40;20055;-67
2023/08/28 03:31:11;;;;;;;8.23;7.18;;;;;;;13.43;93.72;100913.88;3577654;40;20120;-67
2023/08/28 03:33:37;;;;;;;11.45;7.53;;;;;;;13.44;93.57;100918.31;3581504;40;20066;-67
2023/08/28 03:36:05;;;;;;;9.48;7.55;;;;;;;13.51;93.51;100921.41;3583932;40;20055;-67
2023/08/28 03:38:30;;;;;;;8.88;7.97;;;;;;;13.48;93.50;100914.44;3582739;40;20052;-68
2023/08/28 03:40:57;;;;;;;11.23;8.60;;;;;;;13.56;93.83;100927.34;3582752;40;20052;-68
2023/08/28 03:43:22;;;;;;;10.20;7.97;;;;;;;13.53;93.48;100928.44;3582185;40;20358;-68
2023/08/28 03:45:48;;;;;;;8.02;7.32;;;;;;;13.58;93.47;100931.69;3582252;40;20364;-68
2023/08/28 03:48:14;;;;;;;9.27;8.15;;;;;;;13.61;93.77;100931.47;3584765;40;20064;-68
2023/08/28 03:50:39;;;;;;;9.02;8.07;;;;;;;13.65;94.32;100937.50;3583599;40;20055;-68
2023/08/28 03:53:05;;;;;;;10.60;8.32;;;;;;;13.66;94.09;100934.66;3581606;40;20048;-68
2023/08/28 03:55:31;;;;;;;9.40;7.43;;;;;;;13.67;94.02;100939.13;3583338;40;20082;-68
2023/08/28 03:57:58;;;;;;;11.10;8.30;;;;;;;13.68;93.78;100948.94;3585924;40;20059;-68
2023/08/28 04:00:25;;;;;;;8.77;7.80;;;;;;;13.64;94.05;100942.03;3584256;40;20059;-68
2023/08/28 04:02:51;;;;;;;9.75;8.07;;;;;;;12.90;93.58;100822.25;3585655;40;20137;-68
2023/08/28 04:05:17;;;;;;;10.60;8.55;;;;;;;13.74;94.06;100957.59;3572947;40;20044;-68
2023/08/28 04:07:44;;;;;;;10.05;7.85;;;;;;;13.79;94.02;100960.78;3583465;40;20048;-68
2023/08/28 04:10:10;;;;;;;11.90;8.38;;;;;;;13.54;93.66;100918.50;3581713;40;20063;-67
2023/08/28 04:12:37;;;;;;;9.70;7.95;;;;;;;13.86;93.98;100952.13;3586001;40;20048;-68
2023/08/28 04:15:04;;;;;;;10.38;8.48;;;;;;;13.73;93.68;100934.22;3584487;40;20070;-67
2023/08/28 04:17:30;;;;;;;9.55;8.65;;;;;;;13.85;93.42;100949.53;3575388;40;20044;-68
2023/08/28 04:19:56;;;;;;;9.40;8.50;;;;;;;13.91;93.48;100971.56;3583062;40;20044;-67
2023/08/28 04:22:23;;;;;;;10.00;9.00;;;;;;;13.93;93.39;100957.94;3583834;40;20059;-68
2023/08/28 04:24:52;;;;;;;10.70;8.63;;;;;;;13.49;93.62;100878.34;3583221;40;20358;-67
2023/08/28 04:27:18;;;;;;;10.15;9.13;;;;;;;13.99;94.00;100962.91;3581267;39;20055;-68
2023/08/28 04:29:44;;;;;;;9.48;8.57;;;;;;;13.95;93.93;100955.97;3586695;40;20091;-68
2023/08/28 04:32:09;;;;;;;10.48;8.70;;;;;;;14.05;94.17;100966.97;3582905;40;20567;-67
2023/08/28 04:34:35;;;;;;;10.18;9.15;;;;;;;14.01;93.24;100960.94;3582843;40;20048;-68
2023/08/28 04:37:01;;;;;;;11.73;9.05;;;;;;;14.09;93.73;100966.66;3582082;40;20102;-68
2023/08/28 04:39:28;;;;;;;10.45;8.82;;;;;;;14.12;93.56;100971.81;3585303;40;20052;-68
2023/08/28 04:41:54;;;;;;;9.73;8.35;;;;;;;14.07;93.77;100960.47;3585786;40;20078;-69
2023/08/28 04:44:20;;;;;;;10.73;9.07;;;;;;;14.13;93.04;100965.44;3583354;40;20048;-68
2023/08/28 04:46:47;;;;;;;9.60;8.70;;;;;;;14.11;93.56;100963.81;3581949;40;20064;-68
2023/08/28 04:49:14;;;;;;;8.60;7.70;;;;;;;14.03;93.15;100942.78;3582536;40;20049;-67
2023/08/28 04:51:40;;;;;;;11.02;8.68;;;;;;;14.17;93.96;100966.06;3577921;40;20063;-66
2023/08/28 04:54:06;;;;;;;9.85;8.25;;;;;;;14.19;93.96;100950.59;3584112;40;20433;-66
2023/08/28 04:56:32;;;;;;;9.32;8.23;;;;;;;13.78;93.28;100884.28;3585679;40;20116;-66
2023/08/28 04:58:57;;;;;;;9.98;7.55;;;;;;;14.22;93.82;100942.25;3584069;40;20435;-66
2023/08/28 05:01:24;;;;;;;8.70;7.90;;;;;;;14.29;93.39;100950.78;3583921;40;20048;-67
2023/08/28 05:03:50;;;;;;;8.48;7.68;;;;;;;14.31;92.80;100946.13;3583604;40;20402;-67
2023/08/28 05:06:15;;;;;;;8.77;7.88;;;;;;;14.33;93.34;100938.72;3583606;40;20092;-67
2023/08/28 05:08:41;;;;;;;8.88;7.70;;;;;;;14.17;93.24;100907.44;3585855;40;20053;-67
2023/08/28 05:11:06;;;;;;;8.32;7.47;;;;;;;14.40;92.59;100945.41;3572508;40;20102;-66
2023/08/28 05:13:32;;;;;;;8.85;7.40;;;;;;;14.44;92.98;100940.63;3585860;40;20067;-67
2023/08/28 05:15:58;;;;;;;11.10;7.80;;;;;;;14.47;93.20;100941.25;3583149;40;20103;-67
2023/08/28 05:18:23;;;;;;;8.75;7.43;;;;;;;14.51;93.67;100945.47;3584246;40;20056;-66
2023/08/28 05:20:49;;;;;;;8.18;7.38;;;;;;;14.56;93.06;100947.84;3579311;40;20399;-66
2023/08/28 05:23:14;;;;;;;8.02;6.85;;;;;;;14.49;92.51;100927.59;3587638;39;20096;-67
2023/08/28 05:25:40;;;;;;;8.98;7.72;;;;;;;14.64;92.22;100945.41;3583217;40;20047;-67
2023/08/28 05:28:06;;;;;;;7.60;6.72;;;;;;;14.69;91.81;100945.06;3583089;40;20079;-66
2023/08/28 05:30:31;;;;;;;8.65;7.80;;;;;;;14.72;91.85;100942.13;3585392;40;20055;-67
2023/08/28 05:32:57;;;;;;;7.43;6.82;;;;;;;14.69;91.64;100940.50;3581471;40;20052;-66
2023/08/28 05:35:23;;;;;;;8.57;7.40;;;;;;;14.76;91.40;100946.31;3586445;40;20067;-67
2023/08/28 05:37:52;;;;;;;8.48;6.95;;;;;;;14.75;91.24;100941.88;3573423;40;20141;-67
2023/08/28 05:40:17;;;;;;;8.52;7.65;;;;;;;14.75;91.29;100939.19;3586154;40;20044;-67
2023/08/28 05:42:44;;;;;;;8.27;7.50;;;;;;;14.63;92.07;100914.78;3583937;40;20283;-67
2023/08/28 05:45:10;;;;;;;7.90;7.10;;;;;;;14.78;91.33;100936.22;3581522;40;20142;-66
2023/08/28 05:47:37;;;;;;;7.97;7.28;;;;;;;14.79;91.44;100943.38;3582552;40;20052;-67
2023/08/28 05:50:04;;;;;;;8.13;7.30;;;;;;;14.73;91.64;100919.47;3582280;40;20047;-66
2023/08/28 05:52:30;;;;;;;8.32;7.53;;;;;;;14.83;91.40;100947.53;3585259;40;20048;-67
2023/08/28 05:54:55;;;;;;;8.90;8.07;;;;;;;14.85;92.05;100951.00;3581552;40;20059;-67
2023/08/28 05:57:23;;;;;;;8.93;7.97;;;;;;;14.86;91.57;100964.41;3582218;40;20059;-67
2023/08/28 05:59:52;;;;;;;9.23;8.20;;;;;;;14.85;91.65;100953.72;3583857;40;20084;-67
2023/08/28 06:02:17;;;;;;;9.57;8.65;;;;;;;14.84;91.98;100950.16;3586811;40;20052;-66
2023/08/28 06:04:51;;;;;;;8.32;7.53;;;;;;;14.83;92.54;100942.13;3587140;40;20058;-67
2023/08/28 06:07:16;;;;;;;;;;;;;;;14.80;92.17;100945.09;3586308;40;20048;-66
2023/08/28 06:09:43;;;;;;;9.05;8.25;;;;;;;14.81;92.64;100947.69;3583546;40;19940;-66
2023/08/28 06:12:09;;;;;;;9.40;8.43;;;;;;;14.84;91.77;100949.25;3583849;40;20072;-66
2023/08/28 06:14:35;;;;;;;10.20;9.13;;;;;;;14.77;91.97;100937.19;3587665;40;20099;-66
2023/08/28 06:17:00;;;;;;;10.30;8.52;;;;;;;14.75;92.47;100922.94;3586010;40;20060;-67
2023/08/28 06:19:26;;;;;;;9.13;8.23;;;;;;;14.88;92.16;100944.50;3576556;40;20084;-67
2023/08/28 06:21:52;;;;;;;9.75;8.85;;;;;;;14.88;92.28;100944.50;3583110;40;20070;-67
2023/08/28 06:24:17;;;;;;;11.45;9.07;;;;;;;14.93;92.91;100947.69;3582697;40;20066;-67
2023/08/28 06:26:43;;;;;;;10.30;9.20;;;;;;;14.97;92.37;100949.16;3583785;40;20079;-66
2023/08/28 06:29:08;;;;;;;10.65;9.13;;;;;;;15.00;92.13;100947.09;3583405;40;20626;-66
2023/08/28 06:31:34;;;;;;;10.35;9.18;;;;;;;15.04;92.26;100945.88;3584963;40;20741;-67
2023/08/28 06:34:01;;;;;;;9.80;8.80;;;;;;;15.05;92.38;100938.59;3579241;40;20056;-66
2023/08/28 06:36:27;;;;;;;10.07;9.02;;;;;;;15.19;93.20;100954.66;3584406;40;20461;-67
2023/08/28 06:38:52;;;;;;;10.43;9.43;;;;;;;15.27;92.97;100956.72;3583639;40;20078;-66
2023/08/28 06:41:19;;;;;;;11.02;9.90;;;;;;;15.36;92.52;100953.28;3585677;40;20055;-67
2023/08/28 06:43:46;;;;;;;11.23;9.43;;;;;;;15.27;92.26;100916.09;3583484;40;20099;-67
2023/08/28 06:46:12;;;;;;;10.43;9.43;;;;;;;15.47;92.97;100926.19;3581118;40;20130;-67
2023/08/28 06:48:38;;;;;;;11.10;9.50;;;;;;;15.73;92.28;100939.50;3571665;40;20076;-68
2023/08/28 06:51:03;;;;;;;10.57;9.30;;;;;;;15.95;92.06;100955.75;3581711;40;20059;-67
2023/08/28 06:53:30;;;;;;;8.98;8.18;;;;;;;16.16;91.11;100955.81;3584343;40;20063;-68
2023/08/28 06:55:56;;;;;;;9.93;8.93;;;;;;;16.38;90.93;100960.28;3581777;40;20079;-67
2023/08/28 06:58:22;;;;;;;8.70;7.90;;;;;;;16.54;89.01;100972.56;3582756;40;20125;-66
2023/08/28 07:00:48;;;;;;;10.60;7.97;;;;;;;16.66;88.62;100971.53;3581991;40;20260;-66
2023/08/28 07:03:13;;;;;;;8.95;7.53;;;;;;;16.77;88.27;100981.50;3580703;40;20068;-65
2023/08/28 07:05:40;;;;;;;7.80;7.00;;;;;;;16.75;87.10;100961.75;3582692;40;20064;-65
2023/08/28 07:08:05;;;;;;;8.45;6.90;;;;;;;16.47;87.33;100916.09;3581802;40;20055;-66
2023/08/28 07:10:31;;;;;;;7.50;6.80;;;;;;;16.93;86.30;100982.75;3572264;40;20062;-68
2023/08/28 07:12:57;;;;;;;8.00;7.15;;;;;;;16.97;86.26;100987.91;3575336;40;20279;-67
2023/08/28 07:15:29;;;;;;;7.72;7.00;;;;;;;16.98;85.99;100985.09;3582557;39;20064;-66
2023/08/28 07:17:54;;;;;;;7.07;6.45;;;;;;;17.01;86.57;100994.84;3581967;40;20052;-66
2023/08/28 07:20:22;;;;;;;7.57;6.85;;;;;;;17.02;86.66;100996.53;3584077;39;20060;-66
2023/08/28 07:22:48;;;;;;;10.38;7.38;;;;;;;17.06;87.05;100995.28;3579805;40;20049;-66
2023/08/28 07:25:15;;;;;;;9.13;7.20;;;;;;;17.11;87.42;100991.19;3580435;40;20407;-66
2023/08/28 07:27:41;;;;;;;9.20;7.55;;;;;;;17.20;87.30;100985.94;3575977;40;20060;-66
2023/08/28 07:30:07;;;;;;;8.70;7.53;;;;;;;17.28;87.54;100978.81;3585693;40;20061;-66
2023/08/28 07:32:33;;;;;;;7.68;6.97;;;;;;;17.48;87.76;100978.94;3582928;40;20359;-66
2023/08/28 07:35:01;;;;;;;7.68;6.82;;;;;;;17.63;85.77;100975.72;3572275;40;20086;-66
2023/08/28 07:37:30;;;;;;;7.10;6.50;;;;;;;17.76;84.34;100975.50;3584105;40;20056;-65
2023/08/28 07:39:56;;;;;;;6.93;6.32;;;;;;;18.03;85.34;100971.28;3580838;40;20044;-66
2023/08/28 07:42:22;;;;;;;6.47;5.90;;;;;;;18.27;83.57;100971.78;3583143;40;20079;-66
2023/08/28 07:44:48;;;;;;;6.60;5.97;;;;;;;18.56;82.79;100979.09;3582530;40;20314;-66
2023/08/28 07:47:13;;;;;;;6.38;5.50;;;;;;;18.73;81.37;100977.56;3585062;40;20060;-66
2023/08/28 07:49:41;;;;;;;5.80;5.25;;;;;;;18.90;79.81;100974.13;3583358;40;20295;-67
2023/08/28 07:52:07;;;;;;;7.35;5.07;;;;;;;18.99;78.88;100986.84;3571417;40;20044;-66
2023/08/28 07:54:33;;;;;;;7.57;5.10;;;;;;;19.10;78.01;100977.66;3581163;40;20414;-67
2023/08/28 07:56:58;;;;;;;5.22;4.70;;;;;;;19.25;78.13;100987.09;3584622;40;20126;-66
2023/08/28 07:59:24;;;;;;;5.88;5.28;;;;;;;19.35;76.63;100987.06;3583823;40;20083;-66
2023/08/28 08:01:49;;;;;;;5.63;4.63;;;;;;;19.37;76.10;100985.03;3585068;40;20060;-64
2023/08/28 08:04:15;;;;;;;7.10;4.15;;;;;;;19.30;76.03;100966.72;3584642;40;21073;-67
2023/08/28 08:06:41;;;;;;;5.00;4.50;;;;;;;19.42;76.38;100976.44;3584127;40;20068;-64
2023/08/28 08:09:06;;;;;;;5.68;5.07;;;;;;;18.79;76.21;100866.16;3582623;40;20103;-65
2023/08/28 08:11:32;;;;;;;6.68;4.30;;;;;;;19.56;74.61;100983.25;3581293;39;20111;-65
2023/08/28 08:13:58;;;;;;;5.85;4.85;;;;;;;19.62;76.33;100979.94;3582940;40;20083;-65
2023/08/28 08:16:24;;;;;;;6.35;5.00;;;;;;;19.69;75.06;100979.22;3582999;40;20052;-65
2023/08/28 08:18:50;;;;;;;5.40;4.90;;;;;;;19.77;76.35;100973.00;3580214;39;20407;-64
2023/08/28 08:21:15;;;;;;;7.72;5.38;;;;;;;19.81;75.51;100984.47;3573290;40;20095;-65
2023/08/28 08:23:42;;;;;;;5.43;5.03;;;;;;;19.81;74.85;100982.59;3582483;40;20102;-65
2023/08/28 08:26:07;;;;;;;6.68;5.10;;;;;;;19.76;74.02;100984.06;3586020;40;20429;-65
2023/08/28 08:28:33;;;;;;;6.85;5.07;;;;;;;19.60;73.52;100969.19;3583515;40;20113;-66
2023/08/28 08:30:59;;;;;;;5.13;4.63;;;;;;;19.63;74.16;100976.19;3584416;40;20366;-65
2023/08/28 08:33:24;;;;;;;5.68;5.05;;;;;;;19.57;75.27;100984.97;3584270;40;20678;-65
2023/08/28 08:35:50;;;;;;;7.15;5.25;;;;;;;19.48;75.42;100987.59;3585197;40;20052;-65
2023/08/28 08:38:17;;;;;;;6.80;5.25;;;;;;;19.44;76.10;100998.94;3583123;40;20136;-65
2023/08/28 08:40:43;;;;;;;6.45;5.00;;;;;;;19.37;76.12;101000.53;3585084;40;20056;-64
2023/08/28 08:43:09;;;;;;;5.70;5.20;;;;;;;19.31;76.28;100998.41;3577106;40;20400;-65
2023/08/28 08:45:40;;;;;;;5.25;4.85;;;;;;;19.16;75.84;100987.13;3584772;40;20064;-65
2023/08/28 08:48:08;;;;;;;7.68;5.00;;;;;;;19.23;75.87;101002.72;3586061;40;20388;-65
2023/08/28 08:50:37;;;;;;;5.90;4.60;;;;;;;19.22;75.62;101001.03;3586901;40;20058;-66
2023/08/28 08:53:15;;;;;;;5.80;5.00;;;;;;;19.19;74.18;101005.91;3586653;40;20092;-65
2023/08/28 08:55:47;;;;;;;5.50;4.60;;;;;;;19.20;74.90;101000.28;3586550;40;20064;-66
2023/08/28 08:58:16;;;;;;;4.53;4.13;;;;;;;19.25;74.74;101003.44;3582030;40;20067;-65
2023/08/28 09:00:45;;;;;;;4.60;4.20;;;;;;;19.32;74.41;101003.72;3584745;40;20063;-66
2023/08/28 09:03:13;;;;;;;5.18;4.00;;;;;;;19.14;74.58;100951.81;3580378;40;20272;-66
2023/08/28 09:05:41;;;;;;;5.45;3.60;;;;;;;19.52;74.64;100988.16;3584847;40;20126;-66
2023/08/28 09:08:07;;;;;;;4.85;4.28;;;;;;;19.61;73.61;100997.31;3585422;39;20419;-65
2023/08/28 09:10:34;;;;;;;4.13;3.72;;;;;;;19.75;73.87;100999.56;3583905;40;20172;-64
2023/08/28 09:13:00;;;;;;;4.50;3.00;;;;;;;19.92;71.68;100995.22;3585637;40;20075;-65
2023/08/28 09:15:26;;;;;;;3.58;3.28;;;;;;;20.08;71.16;100984.47;3582784;40;20075;-65
2023/08/28 09:17:52;;;;;;;4.00;2.90;;;;;;;20.25;70.42;100990.13;3583561;40;20048;-66
2023/08/28 09:20:21;;;;;;;3.92;3.13;;;;;;;20.33;67.71;100988.34;3582556;40;20094;-65
2023/08/28 09:22:53;;;;;;;3.30;3.00;;;;;;;20.37;67.39;100980.69;3582313;40;20126;-64
2023/08/28 09:25:21;;;;;;;3.72;3.35;;;;;;;20.45;67.28;100990.84;3581905;40;20071;-64
2023/08/28 09:27:51;;;;;;;3.20;2.35;;;;;;;20.53;66.58;100989.09;3583506;40;20307;-64
2023/08/28 09:30:32;;;;;;;2.88;2.60;;;;;;;20.63;66.79;100983.53;3585010;39;20063;-64
2023/08/28 09:33:01;;;;;;;2.70;2.50;;;;;;;20.68;66.37;100991.25;3583077;40;20256;-65
2023/08/28 09:35:39;;;;;;;2.92;2.72;;;;;;;20.74;66.16;100990.63;3584053;40;20075;-66
2023/08/28 09:38:05;;;;;;;2.88;2.50;;;;;;;20.74;65.78;100993.38;3583620;40;20268;-65
2023/08/28 09:40:35;;;;;;;2.35;2.00;;;;;;;20.84;65.72;100997.75;3583347;40;20086;-65
2023/08/28 09:43:11;;;;;;;2.30;2.20;;;;;;;20.88;64.76;100998.28;3581502;40;20065;-64
2023/08/28 09:45:37;;;;;;;1.90;1.80;;;;;;;21.02;64.17;101003.16;3583366;40;20052;-65
2023/08/28 09:48:07;;;;;;;1.95;1.83;;;;;;;21.01;63.97;100979.59;3586594;40;20063;-64
2023/08/28 09:50:39;;;;;;;1.73;1.63;;;;;;;21.22;63.05;101005.75;3582608;40;20544;-65
2023/08/28 09:53:06;;;;;;;2.40;1.83;;;;;;;21.34;61.71;101009.91;3584888;40;20337;-64
2023/08/28 09:55:44;;;;;;;2.03;1.38;;;;;;;21.40;61.39;101001.09;3584641;40;20334;-65
2023/08/28 09:58:11;;;;;;;2.13;1.52;;;;;;;21.46;59.36;101007.78;3583093;40;20441;-65
2023/08/28 10:00:42;;;;;;;1.08;1.00;;;;;;;21.64;60.83;101005.00;3574565;40;20116;-64
2023/08/28 10:03:11;;;;;;;1.40;1.30;;;;;;;21.94;61.99;101000.84;3581505;40;20126;-65
2023/08/28 10:05:40;;;;;;;1.42;1.30;;;;;;;22.09;59.13;101001.09;3582281;39;20132;-64
2023/08/28 10:08:09;;;;;;;5.00;1.30;;;;;;;22.16;58.52;100993.97;3582257;40;20052;-65
2023/08/28 10:10:38;;;;;;;1.60;1.23;;;;;;;22.36;58.59;101000.88;3583231;40;20070;-65
2023/08/28 10:13:06;;;;;;;4.32;1.80;;;;;;;22.44;58.54;101003.63;3583614;40;20055;-64
2023/08/28 10:15:40;;;;;;;1.90;1.63;;;;;;;22.53;58.11;100995.44;3582671;40;20090;-65
2023/08/28 10:18:32;;;;;;;3.95;1.75;;;;;;;22.51;58.89;100997.47;3582220;40;20048;-65
2023/08/28 10:20:58;;;;;;;3.20;1.48;;;;;;;22.09;57.57;100949.06;3584501;40;20134;-64
2023/08/28 10:23:27;;;;;;;1.55;1.45;;;;;;;22.24;57.66;100991.25;3582029;40;20792;-64
2023/08/28 10:25:55;;;;;;;1.90;1.25;;;;;;;22.06;57.84;100968.56;3584744;40;20652;-64
2023/08/28 10:28:25;;;;;;;1.48;1.17;;;;;;;21.99;57.22;100977.44;3583668;40;20084;-65
2023/08/28 10:30:51;;;;;;;1.35;1.25;;;;;;;22.06;57.22;100988.59;3582889;40;20053;-64
2023/08/28 10:33:22;;;;;;;2.10;1.52;;;;;;;22.09;59.21;100987.41;3584290;40;20063;-64
2023/08/28 10:35:54;;;;;;;1.42;1.08;;;;;;;22.11;58.56;100993.59;3583615;40;20123;-65
2023/08/28 10:38:21;;;;;;;3.17;1.33;;;;;;;22.14;57.73;100987.78;3584969;40;20092;-64
2023/08/28 10:40:52;;;;;;;1.80;1.35;;;;;;;22.17;58.12;100993.81;3585452;40;20052;-64
2023/08/28 10:43:22;;;;;;;3.00;1.40;;;;;;;22.21;59.16;100991.59;3582864;40;20414;-64
2023/08/28 10:45:52;;;;;;;1.45;1.30;;;;;;;22.19;57.77;100988.16;3586307;40;20052;-64
2023/08/28 10:48:19;;;;;;;1.80;1.30;;;;;;;22.16;57.01;100994.81;3584347;40;20064;-64
2023/08/28 10:50:45;;;;;;;2.85;1.50;;;;;;;22.07;56.92;100989.44;3584296;40;20066;-65
2023/08/28 10:53:16;;;;;;;2.83;1.35;;;;;;;22.00;55.96;100984.63;3580891;40;20056;-64
2023/08/28 10:56:00;;;;;;;2.15;1.48;;;;;;;21.85;56.21;100997.25;3586548;40;20323;-64
2023/08/28 10:58:30;;;;;;;3.03;1.40;;;;;;;21.65;57.06;100968.41;3583355;40;20322;-64
2023/08/28 11:01:16;;;;;;;1.38;1.27;;;;;;;21.77;58.12;100989.84;3582923;39;20091;-64
2023/08/28 11:03:50;;;;;;;2.45;1.70;;;;;;;21.70;57.98;100983.31;3584249;40;20311;-64
2023/08/28 11:06:43;;;;;;;1.65;1.55;;;;;;;21.67;59.48;100993.75;3582297;40;20052;-64
2023/08/28 11:09:27;;;;;;;2.78;2.10;;;;;;;21.68;60.55;100995.44;3585729;40;20078;-64
2023/08/28 11:11:59;;;;;;;;;;;;;;;21.65;60.08;100982.94;3582809;40;20044;-64
2023/08/28 11:14:46;;;;;;;3.95;2.20;;;;;;;21.65;60.13;100979.34;3576745;40;20177;-64
2023/08/28 11:17:16;;;;;;;3.65;2.13;;;;;;;21.62;60.07;100968.72;3574755;40;20048;-64
2023/08/28 11:19:57;;;;;;;2.72;2.15;;;;;;;21.87;57.88;100973.28;3580662;40;20376;-64
2023/08/28 11:22:38;;;;;;;1.90;1.80;;;;;;;22.38;59.53;100952.25;3583027;40;20255;-65
2023/08/28 11:25:09;;;;;;;2.25;1.80;;;;;;;22.70;55.72;100967.84;3583596;40;20048;-64
2023/08/28 11:27:53;;;;;;;2.40;2.03;;;;;;;22.87;53.13;100970.63;3582186;40;20060;-65